ユジノサハリンスク の空港の天気 - METARとTAF

ホムトヴォ空港(ユジノサハリンスク) ( UHSS / UUS ) - ロシア ユジノサハリンスク
飛行場実況気象(Metar)
観測時間07/16 16:00 VLAT (07/16 06:00 UTC)
風向・風速北 9m/s 瞬間風速14m/s
視程10km以上
天気現象
全天の8割程度の雲 雲底高度 270m
全天の8割程度の雲 雲底高度 820m
気温12℃
湿度88%
気圧1008hPa
METARUHSS 160600Z 35009G14MPS 9999 BKN009 BKN027 12/10 Q1008 R01/70D NOSIG RMK MT OBSC QFE755/1006
過去の天気等 Google飛行場航空写真 Wunderground天気予報

過去48時間のMETAR

飛行場予報(TAF)
発表時間: 7/16 15:00 VLAT (7/16 05:00 UTC)
予報対象時間: 16日16時 VLAT ~ 17日22時 VLAT
風向・風速北 10m/s 瞬間風速 15m/s
視程10km以上
全天の4割程度の雲 雲底高度 340m
全天の8割程度の積乱雲 雲底高度 910m
16日19時 VLAT ~ 16日22時 VLAT に徐々に
風向・風速北北東 6m/s
TAF UHSS 160500Z 1606/1712 35010G15MPS 9999 SCT011 BKN030CB
BECMG 1609/1612 02006MPS